Aérodrome :
LOGIN :

S'inscrire | Disclaimer

   EN    FR    IT 

 










Légende :    VFR   VFR Marginal   IFR   IFR Intensif   IFR Très Intensif
Visi : 
Plafond : 
>= 8 km
>= 3000ft
5 à 8 km
1000 à 3000 ft
1500m à 5 km
500 à 1000 ft
800 à 1500m
200 à 500 ft
< 800m
< 200 ft
Symboles :   Orages  Brouillard  Fortes neiges  Fortes précipitations  Vent > 20 kt
SIGMETs :   Divers  Orages  Givrage  Turbulence  Onde Orograph.  Cendres Volcan.







- Altitude de l'aérodrome : 336 ft
- Code IATA : GCI
- Voir les cartes d'approche


EGJB - Guernsey

DERNIER METAR :
  • 182020Z 08019G29KT 9999 FEW016 10/06 Q1019

METARs EXPIRÉS :
  • 181950Z 08018KT 9999 FEW016 10/06 Q1019
  • 181920Z 07018KT 9999 FEW016 10/06 Q1019
  • 181850Z 07018G30KT 9999 FEW016 09/05 Q1019
  • 181820Z 07019G30KT 9999 FEW016 09/05 Q1019
  • 181750Z 07016G26KT 9999 FEW018 09/05 Q1020

TAF TAF EGJB
Valide du 18 à 21h jusqu'au 19 à 06h UTC


182004Z 1821/1906 09018KT 9999 FEW018
ATIS : +44 1481 238 957
Pas de NOTAMs connus pour ce terrain.



MET'MAP, la Météo Aéronautique d'un coup d'oeil ! - Copyright ORBIFLY Décembre 2007 - Disclaimer

ORBIFLY MET'MAP TEAM :

Programmation & Développement : Alexandra Zaïnal
Conception & Développement : Baudouin d'Aumeries
Co-Programmation & Développement : Marc-Olivier Méhu
Soutien technique & logistique : Manuel Goepfert

Contact : metmap@orbifly.com




SOURCES & CREDITS :

   NOAA